createdAt,value
2023-10-02T00:00:00.464Z,0.0
2023-10-02T00:05:00.405Z,0.0
2023-10-02T00:10:00.680Z,0.0
2023-10-02T00:15:00.939Z,0.0
2023-10-02T00:20:00.394Z,0.5
2023-10-02T00:25:00.340Z,0.0
2023-10-02T00:30:01.020Z,0.0
2023-10-02T00:35:00.557Z,0.0
2023-10-02T00:40:00.396Z,0.0
2023-10-02T00:45:00.319Z,0.0
2023-10-02T00:50:00.484Z,0.0
2023-10-02T00:55:00.355Z,0.0
2023-10-02T01:00:00.393Z,0.0
2023-10-02T01:05:00.407Z,0.0
2023-10-02T01:10:00.355Z,0.0
2023-10-02T01:15:00.368Z,0.1
2023-10-02T01:20:00.427Z,0.0
2023-10-02T01:25:00.299Z,0.0
2023-10-02T01:30:00.353Z,0.3
2023-10-02T01:35:00.493Z,0.0
2023-10-02T01:40:00.355Z,0.0
2023-10-02T01:45:00.328Z,0.0
2023-10-02T01:50:00.574Z,0.0
2023-10-02T01:55:00.309Z,0.0
2023-10-02T02:00:00.346Z,0.0
2023-10-02T02:05:00.423Z,0.0
2023-10-02T02:10:00.358Z,0.1
2023-10-02T02:15:00.345Z,0.0
2023-10-02T02:20:00.453Z,0.1
2023-10-02T02:25:00.357Z,0.0
2023-10-02T02:30:00.386Z,0.1
2023-10-02T02:35:00.499Z,0.8
2023-10-02T02:40:00.355Z,0.0
2023-10-02T02:45:00.291Z,0.0
2023-10-02T02:50:00.629Z,0.0
2023-10-02T02:55:00.800Z,0.0
2023-10-02T03:00:00.401Z,0.0
2023-10-02T03:05:00.520Z,0.0
2023-10-02T03:10:00.523Z,0.0
2023-10-02T03:15:00.306Z,0.0
2023-10-02T03:20:00.549Z,0.0
2023-10-02T03:25:00.300Z,0.0
2023-10-02T03:30:00.361Z,0.0
2023-10-02T03:35:00.491Z,0.0
2023-10-02T03:40:01.512Z,0.0
2023-10-02T03:45:00.363Z,0.0
2023-10-02T03:50:00.384Z,0.0
2023-10-02T03:55:00.359Z,0.0
2023-10-02T04:00:00.412Z,0.0
2023-10-02T04:05:00.453Z,0.0
2023-10-02T04:10:00.389Z,0.0
2023-10-02T04:15:00.347Z,0.4
2023-10-02T04:20:00.480Z,0.1
2023-10-02T04:25:00.584Z,0.0
2023-10-02T04:30:00.353Z,0.0
2023-10-02T04:35:00.461Z,0.0
2023-10-02T04:40:00.363Z,0.5
2023-10-02T04:45:00.382Z,0.0
2023-10-02T04:50:00.476Z,0.0
2023-10-02T04:55:00.362Z,0.0
2023-10-02T05:00:00.463Z,0.0
2023-10-02T05:05:00.415Z,0.0
2023-10-02T05:10:00.369Z,0.0
2023-10-02T05:15:00.303Z,0.1
2023-10-02T05:20:00.561Z,0.0
2023-10-02T05:25:00.401Z,0.0
2023-10-02T05:30:00.483Z,0.0
2023-10-02T05:35:00.529Z,0.0
2023-10-02T05:40:00.320Z,0.0
2023-10-02T05:45:00.519Z,0.0
2023-10-02T05:50:00.473Z,0.0
2023-10-02T05:55:00.312Z,0.0
2023-10-02T06:00:00.434Z,0.0
2023-10-02T06:05:00.467Z,0.0
2023-10-02T06:10:00.448Z,0.7
2023-10-02T06:15:00.325Z,0.7
2023-10-02T06:20:00.566Z,0.9
2023-10-02T06:25:00.348Z,0.1
2023-10-02T06:30:00.418Z,0.3
2023-10-02T06:35:00.413Z,1.1
2023-10-02T06:40:00.427Z,1.1
2023-10-02T06:45:00.300Z,3.8
2023-10-02T06:50:00.518Z,0.4
2023-10-02T06:55:00.317Z,1.6
2023-10-02T07:00:00.372Z,0.3
2023-10-02T07:05:00.433Z,2.2
2023-10-02T07:10:00.342Z,1.3
2023-10-02T07:15:00.454Z,1.9
2023-10-02T07:20:00.569Z,2.3
2023-10-02T07:25:00.342Z,1.3
2023-10-02T07:30:00.376Z,4.4
2023-10-02T07:35:00.373Z,0.8
2023-10-02T07:40:00.336Z,3.6
2023-10-02T07:45:00.288Z,3.4
2023-10-02T07:50:00.603Z,1.2
2023-10-02T07:55:00.373Z,4.5
2023-10-02T08:00:00.386Z,2.3
2023-10-02T08:05:00.331Z,1.1
2023-10-02T08:10:00.330Z,2.3
2023-10-02T08:15:00.308Z,1.5
2023-10-02T08:20:01.114Z,1.1
2023-10-02T08:25:00.338Z,1.7
2023-10-02T08:30:00.348Z,0.7
2023-10-02T08:35:00.757Z,3.1
2023-10-02T08:40:00.380Z,3.3
2023-10-02T08:45:00.475Z,2.5
2023-10-02T08:50:00.478Z,4.0
2023-10-02T08:55:00.306Z,2.7
2023-10-02T09:00:01.803Z,4.0
2023-10-02T09:05:00.491Z,2.2
2023-10-02T09:10:00.342Z,1.0
2023-10-02T09:15:00.504Z,2.9
2023-10-02T09:20:00.407Z,4.4
2023-10-02T09:25:00.388Z,3.6
2023-10-02T09:30:00.386Z,3.3
2023-10-02T09:35:11.292Z,8.0
2023-10-02T09:40:01.097Z,5.7
2023-10-02T09:45:00.411Z,4.9
2023-10-02T09:50:00.496Z,6.2
2023-10-02T09:55:00.407Z,2.4
2023-10-02T10:00:00.347Z,5.7
2023-10-02T10:05:00.398Z,5.9
2023-10-02T10:10:00.402Z,8.3
2023-10-02T10:15:00.512Z,7.3
2023-10-02T10:20:00.524Z,8.4
2023-10-02T10:25:00.390Z,10.1
2023-10-02T10:30:00.341Z,8.1
2023-10-02T10:35:00.484Z,7.6
2023-10-02T10:40:00.340Z,7.4
2023-10-02T10:45:00.295Z,9.0
2023-10-02T10:50:00.424Z,5.9
2023-10-02T10:55:03.448Z,7.4
2023-10-02T11:00:00.373Z,8.1
2023-10-02T11:05:00.739Z,11.1
2023-10-02T11:10:00.650Z,10.5
2023-10-02T11:15:00.606Z,7.8
2023-10-02T11:20:00.678Z,8.8
2023-10-02T11:25:00.580Z,6.6
2023-10-02T11:30:00.616Z,5.2
2023-10-02T11:35:01.193Z,4.8
2023-10-02T11:40:00.648Z,7.3
2023-10-02T11:45:00.603Z,7.3
2023-10-02T11:50:00.658Z,4.2
2023-10-02T11:55:00.579Z,7.6
2023-10-02T12:00:00.613Z,5.6
2023-10-02T12:05:00.646Z,4.6
2023-10-02T12:10:00.634Z,9.9
2023-10-02T12:15:00.571Z,6.0
2023-10-02T12:20:00.966Z,4.7
2023-10-02T12:25:00.616Z,5.8
2023-10-02T12:30:00.632Z,4.5
2023-10-02T12:35:00.731Z,7.1
2023-10-02T12:40:00.690Z,5.4
2023-10-02T12:45:00.578Z,6.2
2023-10-02T12:50:00.686Z,8.2
2023-10-02T12:55:00.622Z,5.7
2023-10-02T13:00:00.617Z,3.6
2023-10-02T13:05:00.685Z,4.8
2023-10-02T13:10:00.620Z,8.6
2023-10-02T13:15:00.613Z,6.4
2023-10-02T13:20:00.699Z,7.5
2023-10-02T13:25:00.588Z,4.0
2023-10-02T13:30:00.643Z,2.9
2023-10-02T13:35:00.721Z,4.6
2023-10-02T13:40:00.615Z,8.6
2023-10-02T13:45:00.629Z,6.8
2023-10-02T13:50:00.822Z,2.1
2023-10-02T13:55:00.590Z,2.3
2023-10-02T14:00:00.631Z,2.9
2023-10-02T14:05:01.071Z,3.1
2023-10-02T14:10:00.620Z,4.3
2023-10-02T14:15:00.635Z,1.8
2023-10-02T14:20:01.253Z,3.6
2023-10-02T14:25:04.622Z,4.7
2023-10-02T14:30:00.639Z,2.6
2023-10-02T14:35:00.648Z,4.3
2023-10-02T14:40:00.619Z,4.1
2023-10-02T14:45:00.579Z,2.9
2023-10-02T14:50:00.711Z,6.4
2023-10-02T14:55:00.633Z,7.0
2023-10-02T15:00:00.601Z,2.7
2023-10-02T15:05:00.668Z,2.4
2023-10-02T15:10:00.618Z,0.9
2023-10-02T15:15:00.581Z,2.1
2023-10-02T15:20:00.659Z,0.6
2023-10-02T15:25:00.629Z,1.4
2023-10-02T15:30:00.677Z,1.3
2023-10-02T15:35:00.703Z,0.2
2023-10-02T15:40:00.637Z,0.0
2023-10-02T15:45:00.584Z,0.0
2023-10-02T15:50:00.666Z,0.0
2023-10-02T15:55:00.601Z,0.0
2023-10-02T16:00:00.633Z,0.0
2023-10-02T16:05:00.663Z,0.0
2023-10-02T16:10:00.633Z,0.0
2023-10-02T16:15:00.602Z,0.0
2023-10-02T16:20:00.654Z,0.0
2023-10-02T16:25:00.570Z,0.0
2023-10-02T16:30:00.680Z,0.0
2023-10-02T16:35:00.798Z,0.0
2023-10-02T16:40:00.631Z,0.0
2023-10-02T16:45:00.592Z,0.0
2023-10-02T16:50:00.763Z,0.0
2023-10-02T16:55:00.618Z,0.0
2023-10-02T17:00:00.648Z,0.0
2023-10-02T17:05:00.701Z,0.0
2023-10-02T17:10:00.619Z,0.0
2023-10-02T17:15:00.634Z,0.0
2023-10-02T17:20:00.916Z,0.0
2023-10-02T17:25:00.602Z,0.0
2023-10-02T17:30:00.623Z,0.0
2023-10-02T17:35:00.681Z,0.0
2023-10-02T17:40:00.639Z,0.0
2023-10-02T17:45:00.579Z,0.0
2023-10-02T17:50:00.898Z,0.0
2023-10-02T17:55:00.581Z,0.0
2023-10-02T18:00:00.598Z,0.0
2023-10-02T18:05:00.925Z,0.0
2023-10-02T18:10:00.634Z,0.0
2023-10-02T18:15:00.619Z,0.0
2023-10-02T18:20:00.650Z,0.0
2023-10-02T18:25:00.627Z,0.0
2023-10-02T18:30:00.595Z,0.0
2023-10-02T18:35:00.621Z,0.0
2023-10-02T18:40:00.623Z,0.0
2023-10-02T18:45:00.644Z,0.0
2023-10-02T18:50:00.637Z,0.0
2023-10-02T18:55:00.573Z,0.0
2023-10-02T19:00:00.959Z,0.1
2023-10-02T19:05:00.673Z,0.0
2023-10-02T19:10:00.658Z,0.0
2023-10-02T19:15:00.584Z,0.0
2023-10-02T19:20:00.625Z,0.0
2023-10-02T19:25:00.638Z,0.0
2023-10-02T19:30:00.634Z,0.0
2023-10-02T19:35:00.579Z,0.0
2023-10-02T19:40:00.651Z,0.0
2023-10-02T19:45:00.607Z,0.0
2023-10-02T19:50:00.622Z,0.0
2023-10-02T19:55:00.642Z,0.0
2023-10-02T20:00:00.642Z,0.0
2023-10-02T20:05:00.592Z,0.0
2023-10-02T20:10:00.642Z,0.0
2023-10-02T20:15:00.590Z,0.0
2023-10-02T20:20:00.708Z,0.0
2023-10-02T20:25:00.611Z,0.0
2023-10-02T20:30:00.630Z,0.0
2023-10-02T20:35:00.585Z,0.0
2023-10-02T20:40:00.618Z,0.0
2023-10-02T20:45:00.585Z,0.0
2023-10-02T20:50:00.634Z,0.0
2023-10-02T20:55:00.589Z,0.0
2023-10-02T21:00:00.616Z,0.0
2023-10-02T21:05:00.685Z,0.0
2023-10-02T21:10:00.645Z,0.0
2023-10-02T21:15:00.574Z,0.0
2023-10-02T21:20:00.649Z,0.0
2023-10-02T21:25:00.582Z,0.0
2023-10-02T21:30:00.626Z,0.0
2023-10-02T21:35:00.638Z,0.0
2023-10-02T21:40:00.633Z,0.0
2023-10-02T21:45:00.576Z,0.0
2023-10-02T21:50:00.646Z,0.0
2023-10-02T21:55:00.596Z,0.0
2023-10-02T22:00:00.676Z,0.0
2023-10-02T22:05:00.575Z,0.0
2023-10-02T22:10:00.636Z,0.0
2023-10-02T22:15:00.626Z,0.0
2023-10-02T22:20:00.597Z,0.0
2023-10-02T22:25:00.485Z,0.0
2023-10-02T22:30:00.609Z,0.0
2023-10-02T22:35:00.576Z,0.0
2023-10-02T22:40:00.611Z,0.0
2023-10-02T22:45:00.589Z,0.0
2023-10-02T22:50:00.621Z,0.0
2023-10-02T22:55:00.617Z,0.0
2023-10-02T23:00:00.623Z,0.0
2023-10-02T23:05:00.618Z,0.0
2023-10-02T23:10:00.698Z,0.0
2023-10-02T23:15:00.617Z,0.0
2023-10-02T23:20:00.607Z,0.0
2023-10-02T23:25:00.580Z,0.0
2023-10-02T23:30:00.609Z,0.0
2023-10-02T23:35:00.590Z,0.0
2023-10-02T23:40:00.616Z,0.0
2023-10-02T23:45:00.575Z,0.0
2023-10-02T23:50:00.617Z,0.0
2023-10-02T23:55:00.620Z,0.0
